Time;durP1;ratioP1;P1;durP2;ratioP2;P2;SDS_P1;SDS_P2;PMS_P1;PMS_P2;Temp;Humidity;BMP_temperature;BMP_pressure;BME280_temperature;BME280_humidity;BME280_pressure;Samples;Min_cycle;Max_cycle;Signal;HPM_P1;HPM_P2
2024/02/01 00:00:52;;;;;;;14.87;8.13;;;2.90;99.90;;;;;;5031360;28;20053;-75
2024/02/01 00:03:18;;;;;;;12.37;7.90;;;2.90;99.90;;;;;;5031205;28;20135;-74
2024/02/01 00:05:43;;;;;;;12.17;7.77;;;3.00;99.90;;;;;;5030984;28;20068;-73
2024/02/01 00:08:09;;;;;;;15.10;8.50;;;3.00;99.90;;;;;;5030809;28;20451;-74
2024/02/01 00:10:34;;;;;;;17.53;9.00;;;3.10;99.90;;;;;;5030845;28;20065;-74
2024/02/01 00:13:00;;;;;;;13.47;8.33;;;3.20;99.90;;;;;;5030997;28;20033;-74
2024/02/01 00:15:25;;;;;;;13.13;7.83;;;3.40;99.90;;;;;;5030512;28;20029;-73
2024/02/01 00:17:51;;;;;;;14.93;8.07;;;3.50;99.90;;;;;;5030963;28;20021;-74
2024/02/01 00:20:16;;;;;;;14.57;8.07;;;3.60;99.90;;;;;;5030141;28;20030;-74
2024/02/01 00:22:42;;;;;;;12.93;8.20;;;3.70;99.90;;;;;;5030650;28;20040;-74
2024/02/01 00:25:08;;;;;;;13.67;8.00;;;3.70;99.90;;;;;;5030838;28;20523;-74
2024/02/01 00:27:33;;;;;;;16.47;8.93;;;3.80;99.90;;;;;;5030474;28;20021;-73
2024/02/01 00:30:01;;;;;;;12.23;8.37;;;3.90;99.90;;;;;;5030725;28;20029;-74
2024/02/01 00:32:26;;;;;;;13.77;8.30;;;3.90;99.90;;;;;;5031211;28;20025;-74
2024/02/01 00:34:52;;;;;;;12.33;9.00;;;3.90;99.90;;;;;;5031206;28;20384;-74
2024/02/01 00:37:17;;;;;;;12.97;8.47;;;4.00;99.90;;;;;;5030438;28;20079;-73
2024/02/01 00:39:43;;;;;;;14.37;8.80;;;3.90;99.90;;;;;;5024264;28;20104;-73
2024/02/01 00:42:08;;;;;;;15.20;9.00;;;3.90;99.90;;;;;;5034295;28;20025;-74
2024/02/01 00:44:34;;;;;;;13.07;8.43;;;3.90;99.90;;;;;;5034530;28;20048;-74
2024/02/01 00:47:00;;;;;;;14.27;8.73;;;3.90;99.90;;;;;;5034477;28;20040;-74
2024/02/01 00:49:25;;;;;;;12.90;9.20;;;3.80;99.90;;;;;;5034716;28;20040;-74
2024/02/01 00:51:51;;;;;;;13.87;8.50;;;3.80;99.90;;;;;;5034260;28;20071;-74
2024/02/01 00:54:16;;;;;;;13.07;9.07;;;3.80;99.90;;;;;;5034560;28;20056;-74
2024/02/01 00:56:42;;;;;;;17.10;9.47;;;3.80;99.90;;;;;;5027248;28;20029;-74
2024/02/01 00:59:07;;;;;;;18.77;9.93;;;3.70;99.90;;;;;;5014362;28;20117;-74
2024/02/01 01:01:33;;;;;;;16.23;9.80;;;3.60;99.90;;;;;;5029092;28;20029;-74
2024/02/01 01:03:59;;;;;;;16.00;9.43;;;3.60;99.90;;;;;;5034368;28;20025;-73
2024/02/01 01:06:24;;;;;;;15.10;9.70;;;3.60;99.90;;;;;;5034119;28;20085;-74
2024/02/01 01:08:50;;;;;;;16.57;9.80;;;3.50;99.90;;;;;;5033880;28;20030;-73
2024/02/01 01:11:15;;;;;;;17.73;10.40;;;3.50;99.90;;;;;;5034032;28;20029;-74
2024/02/01 01:13:41;;;;;;;19.13;11.17;;;3.50;99.90;;;;;;5034283;28;20037;-74
2024/02/01 01:16:06;;;;;;;19.93;11.20;;;3.40;99.90;;;;;;5033790;28;20018;-74
2024/02/01 01:18:32;;;;;;;21.17;12.73;;;3.40;99.90;;;;;;5033673;28;20068;-74
2024/02/01 01:20:58;;;;;;;22.73;12.00;;;3.30;99.90;;;;;;5033738;28;20049;-74
2024/02/01 01:23:24;;;;;;;16.03;11.57;;;3.30;99.90;;;;;;5033997;28;20510;-74
2024/02/01 01:25:50;;;;;;;18.70;11.97;;;3.30;99.90;;;;;;5034550;28;20053;-74
2024/02/01 01:28:15;;;;;;;19.87;12.30;;;3.30;99.90;;;;;;5033592;28;20109;-72
2024/02/01 01:30:41;;;;;;;22.50;13.87;;;3.40;99.90;;;;;;5033811;28;20017;-73
2024/02/01 01:33:06;;;;;;;19.80;14.03;;;3.50;99.90;;;;;;5034139;28;20029;-73
2024/02/01 01:35:32;;;;;;;22.47;14.17;;;3.60;99.90;;;;;;5033789;28;20033;-74
2024/02/01 01:37:57;;;;;;;25.60;15.17;;;3.70;99.90;;;;;;5033407;28;20037;-74
2024/02/01 01:40:23;;;;;;;21.17;14.77;;;3.90;99.90;;;;;;5026960;28;20389;-74
2024/02/01 01:42:50;;;;;;;27.67;15.60;;;4.00;99.90;;;;;;5033478;28;20030;-74
2024/02/01 01:45:16;;;;;;;24.33;15.10;;;4.20;99.90;;;;;;5033549;28;20025;-74
2024/02/01 01:47:42;;;;;;;26.03;15.77;;;4.30;99.90;;;;;;5033229;28;20037;-74
2024/02/01 01:50:08;;;;;;;24.50;15.57;;;4.40;99.90;;;;;;5033322;28;20488;-74
2024/02/01 01:52:35;;;;;;;25.30;15.30;;;4.60;99.90;;;;;;5032602;28;20103;-74
2024/02/01 01:55:03;;;;;;;28.83;16.63;;;4.70;99.90;;;;;;5033349;28;20026;-74
2024/02/01 01:57:29;;;;;;;25.53;16.13;;;4.80;99.90;;;;;;5033118;28;20575;-73
2024/02/01 01:59:56;;;;;;;24.17;15.63;;;4.90;99.90;;;;;;5033567;28;20108;-73
2024/02/01 02:02:23;;;;;;;26.00;16.03;;;5.00;99.90;;;;;;5033190;28;20026;-73
2024/02/01 02:04:51;;;;;;;23.33;15.67;;;5.10;99.90;;;;;;5033343;28;20455;-74
2024/02/01 02:07:16;;;;;;;27.40;16.47;;;5.20;99.90;;;;;;5032773;28;20025;-74
2024/02/01 02:09:43;;;;;;;26.93;16.97;;;5.30;99.90;;;;;;5032835;28;20040;-74
2024/02/01 02:12:10;;;;;;;27.50;15.20;;;5.30;99.90;;;;;;5032689;28;20041;-74
2024/02/01 02:14:36;;;;;;;28.43;16.00;;;5.40;99.90;;;;;;5033289;28;20104;-73
2024/02/01 02:17:03;;;;;;;22.03;14.60;;;5.50;99.90;;;;;;5032772;28;20101;-74
2024/02/01 02:19:28;;;;;;;21.80;14.63;;;5.60;99.90;;;;;;5032932;28;20096;-74
2024/02/01 02:21:54;;;;;;;27.63;15.20;;;5.70;99.90;;;;;;5032649;28;20616;-74
2024/02/01 02:24:20;;;;;;;23.73;14.07;;;5.90;99.90;;;;;;5032247;28;20400;-74
2024/02/01 02:26:48;;;;;;;23.43;13.27;;;6.00;99.90;;;;;;5032598;28;20112;-74
2024/02/01 02:29:15;;;;;;;23.73;13.87;;;6.00;99.90;;;;;;5032947;28;20116;-74
2024/02/01 02:31:45;;;;;;;24.83;13.67;;;6.10;99.90;;;;;;5032175;28;20029;-73
2024/02/01 02:34:11;;;;;;;23.90;13.20;;;6.10;99.90;;;;;;5031451;28;20025;-74
2024/02/01 02:36:37;;;;;;;22.17;12.83;;;6.20;99.90;;;;;;5032374;28;20022;-74
2024/02/01 02:39:03;;;;;;;19.87;11.90;;;6.20;99.90;;;;;;5029326;28;20484;-74
2024/02/01 02:41:29;;;;;;;18.07;11.77;;;6.40;99.90;;;;;;5029021;28;20190;-73
2024/02/01 02:43:56;;;;;;;21.60;12.63;;;6.40;99.90;;;;;;5032719;28;20476;-74
2024/02/01 02:46:24;;;;;;;21.67;11.73;;;6.50;99.90;;;;;;5032395;28;20041;-73
2024/02/01 02:48:49;;;;;;;21.33;11.47;;;6.50;99.90;;;;;;5031472;28;20504;-73
2024/02/01 02:51:16;;;;;;;24.37;12.00;;;6.60;99.90;;;;;;5032111;28;20049;-74
2024/02/01 02:53:41;;;;;;;22.80;12.80;;;6.60;99.90;;;;;;5032231;28;20026;-74
2024/02/01 02:56:07;;;;;;;21.13;11.77;;;6.60;99.90;;;;;;5032302;28;20029;-73
2024/02/01 02:58:35;;;;;;;18.73;11.90;;;6.60;99.90;;;;;;5031757;28;20101;-75
2024/02/01 03:01:05;;;;;;;19.30;11.73;;;6.60;99.90;;;;;;5032134;28;20075;-74
2024/02/01 03:03:32;;;;;;;18.83;10.70;;;6.60;99.90;;;;;;5032184;28;20021;-74
2024/02/01 03:05:57;;;;;;;22.17;11.40;;;6.60;99.90;;;;;;5031904;28;20033;-74
2024/02/01 03:08:23;;;;;;;19.10;11.57;;;6.60;99.90;;;;;;5031278;28;20107;-74
2024/02/01 03:10:50;;;;;;;17.07;10.87;;;6.70;99.90;;;;;;5032681;28;20076;-73
2024/02/01 03:13:16;;;;;;;22.50;11.63;;;6.60;99.90;;;;;;5032211;28;20096;-74
2024/02/01 03:15:42;;;;;;;19.07;11.13;;;6.60;99.90;;;;;;5031839;28;20025;-73
2024/02/01 03:18:10;;;;;;;14.87;9.57;;;6.60;99.90;;;;;;5031155;28;20059;-73
2024/02/01 03:20:36;;;;;;;18.83;10.80;;;6.60;99.90;;;;;;5031685;28;20041;-73
2024/02/01 03:23:05;;;;;;;16.70;9.17;;;6.60;99.90;;;;;;5032101;28;20436;-74
2024/02/01 03:25:32;;;;;;;19.50;9.70;;;6.60;99.90;;;;;;5032106;28;20025;-73
2024/02/01 03:28:03;;;;;;;16.13;9.23;;;6.60;99.90;;;;;;5031262;28;20033;-73
2024/02/01 03:30:30;;;;;;;18.17;9.57;;;6.60;99.90;;;;;;5032085;28;20025;-73
2024/02/01 03:32:56;;;;;;;19.97;11.00;;;6.60;99.90;;;;;;5031750;28;20048;-73
2024/02/01 03:35:23;;;;;;;20.00;10.83;;;6.60;99.90;;;;;;5031661;28;20502;-74
2024/02/01 03:37:49;;;;;;;15.93;8.57;;;6.70;99.90;;;;;;5031576;28;20071;-74
2024/02/01 03:40:18;;;;;;;21.77;8.63;;;6.70;99.90;;;;;;5025232;28;20044;-74
2024/02/01 03:42:45;;;;;;;13.43;7.87;;;6.70;99.90;;;;;;5027056;28;20428;-73
2024/02/01 03:45:11;;;;;;;17.30;8.47;;;6.70;99.90;;;;;;5031760;28;20028;-74
2024/02/01 03:47:36;;;;;;;14.93;7.67;;;6.70;99.90;;;;;;5031389;28;20021;-74
2024/02/01 03:50:02;;;;;;;16.90;8.53;;;6.70;99.90;;;;;;5031459;28;20029;-73
2024/02/01 03:52:28;;;;;;;15.33;7.57;;;6.70;99.90;;;;;;5031504;28;20461;-74
2024/02/01 03:54:54;;;;;;;14.00;7.57;;;6.80;99.90;;;;;;5031714;28;20017;-74
2024/02/01 03:57:20;;;;;;;16.73;8.00;;;6.80;99.90;;;;;;5031035;28;20104;-73
2024/02/01 03:59:46;;;;;;;13.33;6.70;;;6.80;99.90;;;;;;5030564;28;20053;-73
2024/02/01 04:02:14;;;;;;;14.83;7.70;;;6.80;99.90;;;;;;5031051;28;20034;-73
2024/02/01 04:04:45;;;;;;;12.17;6.30;;;6.80;99.90;;;;;;5031051;28;20725;-74
2024/02/01 04:07:16;;;;;;;15.90;6.60;;;6.80;99.90;;;;;;5030920;28;20024;-74
2024/02/01 04:09:45;;;;;;;18.90;7.03;;;6.80;99.90;;;;;;5030860;28;20685;-73
2024/02/01 04:12:12;;;;;;;12.13;6.50;;;6.90;99.90;;;;;;5031010;28;20393;-74
2024/02/01 04:14:38;;;;;;;17.07;7.63;;;6.90;99.90;;;;;;5031781;28;20025;-73
2024/02/01 04:17:05;;;;;;;13.87;6.13;;;7.00;99.90;;;;;;5036978;28;20029;-74
2024/02/01 04:19:31;;;;;;;17.97;6.97;;;7.00;99.90;;;;;;5037337;28;20037;-74
2024/02/01 04:21:56;;;;;;;15.73;7.17;;;7.00;99.90;;;;;;5037933;28;20116;-74
2024/02/01 04:24:22;;;;;;;14.07;6.20;;;7.00;99.90;;;;;;5037841;28;20025;-74
2024/02/01 04:26:48;;;;;;;15.87;6.53;;;7.00;99.90;;;;;;5037176;28;20040;-73
2024/02/01 04:29:14;;;;;;;11.53;5.90;;;7.00;99.90;;;;;;5037565;28;20022;-73
2024/02/01 04:31:40;;;;;;;10.77;6.33;;;7.00;99.90;;;;;;5037392;28;20039;-74
2024/02/01 04:34:05;;;;;;;14.63;6.17;;;7.00;99.90;;;;;;5037414;28;20029;-73
2024/02/01 04:36:31;;;;;;;18.57;6.90;;;6.90;99.90;;;;;;5037366;28;20021;-74
2024/02/01 04:38:57;;;;;;;14.27;6.07;;;6.90;99.90;;;;;;5035414;28;20076;-74
2024/02/01 04:41:22;;;;;;;10.50;6.50;;;6.90;99.90;;;;;;5026123;28;20078;-73
2024/02/01 04:43:48;;;;;;;12.57;6.17;;;6.80;99.90;;;;;;5017724;28;20045;-73
2024/02/01 04:46:14;;;;;;;11.80;5.73;;;6.80;99.90;;;;;;5035201;28;20025;-74
2024/02/01 04:48:39;;;;;;;13.33;6.27;;;6.90;99.90;;;;;;5036767;28;20484;-74
2024/02/01 04:51:05;;;;;;;13.87;6.17;;;6.90;99.90;;;;;;5037264;28;20040;-74
2024/02/01 04:53:31;;;;;;;13.90;6.60;;;7.00;99.90;;;;;;5037290;28;20025;-74
2024/02/01 04:55:56;;;;;;;14.03;6.87;;;7.10;99.90;;;;;;5036670;28;20032;-74
2024/02/01 04:58:22;;;;;;;14.53;6.50;;;7.10;99.90;;;;;;5034830;28;20044;-74
2024/02/01 05:00:49;;;;;;;17.83;6.10;;;7.10;99.90;;;;;;5027431;28;20072;-74
2024/02/01 05:03:15;;;;;;;13.23;6.57;;;7.20;99.90;;;;;;5029380;28;20029;-74
2024/02/01 05:05:45;;;;;;;11.50;6.17;;;7.30;99.90;;;;;;5025868;28;20026;-74
2024/02/01 05:08:12;;;;;;;11.77;6.57;;;7.30;99.90;;;;;;5027947;28;20053;-74
2024/02/01 05:10:39;;;;;;;15.50;6.10;;;7.30;99.90;;;;;;5020428;28;20017;-74
2024/02/01 05:13:05;;;;;;;16.27;6.00;;;7.30;99.90;;;;;;5027548;28;20106;-73
2024/02/01 05:15:30;;;;;;;14.43;6.13;;;7.30;99.90;;;;;;5025485;28;20153;-74
2024/02/01 05:17:56;;;;;;;13.23;6.70;;;7.30;99.90;;;;;;5025976;28;20030;-74
2024/02/01 05:20:21;;;;;;;14.90;7.30;;;7.30;99.90;;;;;;5023816;28;20020;-74
2024/02/01 05:22:47;;;;;;;15.27;6.73;;;7.30;99.90;;;;;;5025182;28;20017;-74
2024/02/01 05:25:15;;;;;;;9.20;6.53;;;7.30;99.90;;;;;;5028104;28;20025;-74
2024/02/01 05:27:52;;;;;;;11.50;6.90;;;7.20;99.90;;;;;;5020556;28;20389;-73
2024/02/01 05:30:21;;;;;;;13.37;6.97;;;7.20;99.90;;;;;;5022618;28;20060;-74
2024/02/01 05:32:51;;;;;;;10.53;6.50;;;7.20;99.90;;;;;;5023702;28;20101;-74
2024/02/01 05:35:27;;;;;;;14.20;7.17;;;7.20;99.90;;;;;;5027519;28;20026;-74
2024/02/01 05:37:53;;;;;;;13.77;6.50;;;7.20;99.90;;;;;;5024605;28;20144;-71
2024/02/01 05:40:19;;;;;;;15.93;7.90;;;7.20;99.90;;;;;;5022493;28;20482;-71
2024/02/01 05:42:45;;;;;;;16.77;7.00;;;7.20;99.90;;;;;;5025471;28;20021;-71
2024/02/01 05:45:13;;;;;;;12.57;7.13;;;7.30;99.90;;;;;;5025046;28;20117;-74
2024/02/01 05:47:40;;;;;;;15.40;6.37;;;7.30;99.90;;;;;;5014037;28;20120;-73
2024/02/01 05:50:11;;;;;;;15.63;7.53;;;7.40;99.90;;;;;;5016473;28;20026;-74
2024/02/01 05:52:37;;;;;;;16.40;6.83;;;7.40;99.90;;;;;;5021848;28;20034;-73
2024/02/01 05:55:05;;;;;;;12.63;6.70;;;7.40;99.90;;;;;;5021282;28;20087;-74
2024/02/01 05:57:32;;;;;;;11.70;6.60;;;7.40;99.90;;;;;;5023006;28;20530;-74
2024/02/01 05:59:58;;;;;;;10.43;5.63;;;7.40;99.90;;;;;;5020920;28;20561;-74
2024/02/01 06:02:25;;;;;;;15.53;6.47;;;7.40;99.90;;;;;;5018370;28;20053;-74
2024/02/01 06:04:51;;;;;;;14.03;6.07;;;7.40;99.90;;;;;;5020027;28;20064;-74
2024/02/01 06:07:17;;;;;;;11.30;6.33;;;7.40;99.90;;;;;;5018049;28;20033;-74
2024/02/01 06:09:42;;;;;;;16.00;6.47;;;7.40;99.90;;;;;;5020164;28;20393;-75
2024/02/01 06:12:08;;;;;;;15.07;7.40;;;7.40;99.90;;;;;;5026106;28;20033;-74
2024/02/01 06:14:35;;;;;;;12.77;6.73;;;7.50;99.90;;;;;;5028111;28;20108;-74
2024/02/01 06:17:01;;;;;;;12.73;6.00;;;7.50;99.90;;;;;;5033552;28;20079;-74
2024/02/01 06:19:26;;;;;;;16.50;7.27;;;7.50;99.90;;;;;;5048282;28;20033;-74
2024/02/01 06:21:52;;;;;;;14.33;7.80;;;7.60;99.90;;;;;;5029860;28;20083;-74
2024/02/01 06:24:17;;;;;;;12.80;7.40;;;7.60;99.90;;;;;;5041850;28;20029;-74
2024/02/01 06:26:43;;;;;;;15.33;6.87;;;7.50;99.90;;;;;;5044666;28;20027;-74
2024/02/01 06:29:09;;;;;;;15.50;6.80;;;7.60;99.90;;;;;;5042630;28;20108;-74
2024/02/01 06:31:39;;;;;;;14.03;6.77;;;7.60;99.90;;;;;;5031404;28;20029;-74
2024/02/01 06:34:06;;;;;;;11.10;7.13;;;7.50;99.90;;;;;;5037302;28;20030;-74
2024/02/01 06:36:35;;;;;;;15.43;6.87;;;7.50;99.90;;;;;;5031752;28;20037;-73
2024/02/01 06:44:24;;;;;;;10.27;6.20;;;7.60;99.90;;;;;;5039892;28;20440;-74
2024/02/01 06:55:06;;;;;;;10.83;6.90;;;7.60;99.90;;;;;;5030293;28;20508;-74
2024/02/01 06:57:45;;;;;;;14.13;6.50;;;7.60;99.90;;;;;;5041641;28;20028;-74
2024/02/01 07:03:13;;;;;;;11.27;7.13;;;7.60;99.90;;;;;;4995097;28;20109;-73
2024/02/01 07:08:26;;;;;;;12.00;6.32;;;7.60;99.90;;;;;;5030668;28;20285;-78
2024/02/01 07:10:58;;;;;;;14.97;6.90;;;7.70;99.90;;;;;;5031703;28;20065;-77
2024/02/01 07:13:45;;;;;;;12.50;6.10;;;7.70;99.90;;;;;;5034876;28;20032;-77
2024/02/01 07:16:55;;;;;;;11.37;6.60;;;7.70;99.90;;;;;;5032711;28;20086;-77
2024/02/01 07:59:58;;;;;;;17.33;9.23;;;7.60;99.90;;;;;;5030286;28;20107;-77
2024/02/01 08:07:55;;;;;;;19.47;9.97;;;7.40;99.90;;;;;;5030099;28;20074;-77
2024/02/01 08:10:21;;;;;;;19.43;10.93;;;7.30;99.90;;;;;;5031111;28;20037;-78
2024/02/01 08:12:47;;;;;;;16.43;10.23;;;7.20;99.90;;;;;;5040214;28;20033;-78
2024/02/01 08:15:19;;;;;;;20.60;11.07;;;7.10;99.90;;;;;;5039919;28;20029;-78
2024/02/01 08:17:48;;;;;;;23.57;11.13;;;7.10;99.90;;;;;;5032492;28;20066;-77
2024/02/01 08:20:15;;;;;;;19.10;11.23;;;7.00;99.90;;;;;;5025787;28;20057;-78
2024/02/01 08:22:41;;;;;;;25.57;11.33;;;6.90;99.90;;;;;;5043142;28;20504;-76
2024/02/01 08:25:11;;;;;;;21.67;11.37;;;6.90;99.90;;;;;;5044237;28;20545;-77
2024/02/01 08:27:49;;;;;;;21.10;10.97;;;6.90;99.90;;;;;;5033704;28;20026;-78
2024/02/01 08:30:19;;;;;;;18.17;10.93;;;6.90;99.90;;;;;;5029898;28;20093;-78
2024/02/01 08:32:48;;;;;;;22.40;11.23;;;6.90;99.90;;;;;;5029573;28;20566;-77
2024/02/01 08:35:14;;;;;;;21.57;12.10;;;6.80;99.90;;;;;;5028059;28;20560;-77
2024/02/01 08:37:40;;;;;;;23.60;13.73;;;6.80;99.90;;;;;;5017063;28;20021;-76
2024/02/01 08:40:17;;;;;;;23.03;12.77;;;6.80;99.90;;;;;;5017130;28;20029;-77
2024/02/01 08:42:44;;;;;;;17.53;11.60;;;6.80;99.90;;;;;;5017579;28;20033;-78
2024/02/01 08:45:10;;;;;;;21.20;12.20;;;6.80;99.90;;;;;;5026194;28;20029;-77
2024/02/01 08:47:36;;;;;;;21.83;12.80;;;6.80;99.90;;;;;;5027371;28;20033;-77
2024/02/01 08:50:06;;;;;;;17.87;12.03;;;6.70;99.90;;;;;;5036769;28;20505;-77
2024/02/01 08:52:44;;;;;;;19.07;13.43;;;6.70;99.90;;;;;;5026409;28;20036;-78
2024/02/01 08:55:10;;;;;;;20.00;13.00;;;6.70;99.90;;;;;;5044031;28;20033;-77
2024/02/01 08:57:43;;;;;;;22.80;14.83;;;6.80;99.90;;;;;;5039322;28;20113;-77
2024/02/01 09:00:25;;;;;;;27.90;14.97;;;6.70;99.90;;;;;;5031805;28;20079;-77
2024/02/01 09:03:11;;;;;;;24.37;14.17;;;6.70;99.90;;;;;;5033722;28;20033;-77
2024/02/01 09:05:38;;;;;;;22.70;13.82;;;6.70;99.90;;;;;;5032290;28;20056;-78
2024/02/01 09:08:15;;;;;;;25.33;15.00;;;6.70;99.90;;;;;;5036207;28;20037;-77
2024/02/01 09:10:57;;;;;;;23.57;12.77;;;6.70;99.90;;;;;;5036983;28;20041;-76
2024/02/01 09:13:24;;;;;;;20.57;12.70;;;6.80;99.90;;;;;;5030856;28;20017;-77
2024/02/01 09:15:53;;;;;;;24.13;12.53;;;6.80;99.90;;;;;;5040771;28;20021;-78
2024/02/01 09:18:19;;;;;;;20.60;11.77;;;6.80;99.90;;;;;;5029503;28;20037;-77
2024/02/01 09:20:46;;;;;;;16.03;11.93;;;6.90;99.90;;;;;;5030246;28;20034;-77
2024/02/01 09:23:14;;;;;;;21.47;12.70;;;6.80;99.90;;;;;;5032165;28;20053;-77
2024/02/01 09:25:41;;;;;;;20.37;13.07;;;6.90;99.90;;;;;;5032218;28;20033;-77
2024/02/01 09:28:12;;;;;;;20.60;11.50;;;7.00;99.90;;;;;;5031059;28;20176;-76
2024/02/01 09:30:45;;;;;;;17.80;10.33;;;7.00;99.90;;;;;;5026664;28;20022;-77
2024/02/01 09:33:17;;;;;;;15.80;10.10;;;7.10;99.90;;;;;;5031841;28;20240;-78
2024/02/01 09:35:44;;;;;;;14.37;9.93;;;7.10;99.90;;;;;;5031450;28;20033;-76
2024/02/01 09:38:10;;;;;;;15.67;9.60;;;7.10;99.90;;;;;;5040700;28;20043;-78
2024/02/01 09:40:42;;;;;;;16.13;9.30;;;7.10;99.90;;;;;;5030612;28;20350;-77
2024/02/01 09:43:21;;;;;;;14.17;8.73;;;7.10;99.90;;;;;;5028733;28;20515;-77
2024/02/01 09:45:49;;;;;;;13.97;7.53;;;7.00;99.90;;;;;;5030864;28;20017;-77
2024/02/01 09:48:16;;;;;;;11.07;7.17;;;7.00;99.90;;;;;;5034102;28;20033;-77
2024/02/01 09:50:55;;;;;;;12.70;7.77;;;7.00;99.90;;;;;;5029285;28;20022;-77
2024/02/01 09:53:23;;;;;;;12.30;7.80;;;7.00;99.90;;;;;;5031854;28;20037;-77
2024/02/01 09:55:53;;;;;;;10.83;6.87;;;6.90;99.90;;;;;;5028732;28;20125;-77
2024/02/01 09:58:19;;;;;;;16.20;8.13;;;7.00;99.90;;;;;;5026958;28;20030;-77
2024/02/01 10:00:45;;;;;;;12.67;7.30;;;6.90;99.90;;;;;;5031121;28;20030;-77
2024/02/01 10:03:15;;;;;;;10.83;7.07;;;6.80;99.90;;;;;;5042309;28;20029;-76
2024/02/01 10:05:43;;;;;;;13.57;7.43;;;6.80;99.90;;;;;;5033231;28;20024;-77
2024/02/01 10:08:11;;;;;;;11.10;6.70;;;6.80;99.90;;;;;;5037969;28;20032;-77
2024/02/01 10:10:38;;;;;;;12.50;7.57;;;6.90;99.90;;;;;;5041496;28;20043;-77
2024/02/01 10:13:06;;;;;;;13.70;7.40;;;6.90;99.90;;;;;;5039896;28;20048;-77
2024/02/01 10:15:33;;;;;;;11.37;7.13;;;6.80;99.90;;;;;;5033044;28;20037;-77
2024/02/01 10:17:59;;;;;;;15.33;7.80;;;6.80;99.90;;;;;;5036083;28;20025;-77
2024/02/01 10:20:47;;;;;;;18.43;7.87;;;6.80;99.90;;;;;;5035230;28;20028;-78
2024/02/01 10:23:13;;;;;;;12.57;7.60;;;6.80;99.90;;;;;;5032334;28;20512;-77
2024/02/01 10:25:49;;;;;;;12.80;8.20;;;6.80;99.90;;;;;;5037556;28;20075;-78
2024/02/01 10:28:17;;;;;;;12.10;8.07;;;6.80;99.90;;;;;;5023731;28;20029;-77
2024/02/01 10:30:43;;;;;;;9.97;7.50;;;6.80;99.90;;;;;;5029105;28;20025;-78
2024/02/01 10:33:10;;;;;;;14.53;8.60;;;6.90;99.90;;;;;;5029741;28;20488;-77
2024/02/01 10:35:37;;;;;;;14.97;8.53;;;6.80;99.90;;;;;;5020962;28;20085;-77
2024/02/01 10:38:13;;;;;;;18.47;8.93;;;6.80;99.90;;;;;;5020307;28;20033;-76
2024/02/01 10:40:52;;;;;;;16.90;9.47;;;6.80;99.90;;;;;;5020331;28;20251;-78
2024/02/01 10:43:26;;;;;;;13.30;9.57;;;6.80;99.90;;;;;;5026042;28;20124;-77
2024/02/01 10:46:05;;;;;;;12.82;8.57;;;6.90;99.90;;;;;;5023485;28;20044;-77
2024/02/01 10:48:35;;;;;;;19.43;10.50;;;6.80;99.90;;;;;;5022982;28;20469;-78
2024/02/01 10:51:09;;;;;;;17.53;10.70;;;6.80;99.90;;;;;;5024064;28;20025;-77
2024/02/01 10:53:46;;;;;;;17.83;11.25;;;6.80;99.90;;;;;;5032383;28;20032;-78
2024/02/01 10:56:15;;;;;;;15.80;10.93;;;6.80;99.90;;;;;;5028640;28;20028;-78
2024/02/01 10:58:45;;;;;;;20.90;11.40;;;6.80;99.90;;;;;;5031793;28;20112;-78
2024/02/01 11:01:13;;;;;;;18.50;11.73;;;6.90;99.90;;;;;;5025884;28;20029;-78
2024/02/01 11:03:59;;;;;;;20.57;11.57;;;6.90;99.90;;;;;;5023118;28;20060;-78
2024/02/01 11:06:26;;;;;;;18.83;12.47;;;7.00;99.90;;;;;;5018124;28;20030;-78
2024/02/01 11:08:53;;;;;;;18.70;11.63;;;7.00;99.90;;;;;;5020904;28;20034;-78
2024/02/01 11:11:22;;;;;;;17.20;11.20;;;7.10;99.90;;;;;;5021762;28;20120;-77
2024/02/01 11:14:12;;;;;;;15.57;11.33;;;7.10;99.90;;;;;;5015804;28;20033;-78
2024/02/01 11:16:42;;;;;;;21.43;11.40;;;7.20;99.90;;;;;;5033054;28;20029;-78
2024/02/01 11:19:15;;;;;;;17.53;11.03;;;7.10;99.90;;;;;;5021709;28;20037;-77
2024/02/01 11:21:50;;;;;;;17.80;11.33;;;7.10;99.90;;;;;;5029351;28;20151;-77
2024/02/01 11:24:20;;;;;;;;;;;7.10;99.90;;;;;;5021844;28;20045;-77
2024/02/01 11:26:47;;;;;;;19.07;10.90;;;7.10;99.90;;;;;;5030374;28;19931;-78
2024/02/01 11:29:18;;;;;;;14.73;10.40;;;7.00;99.90;;;;;;5028273;28;20033;-77
2024/02/01 11:31:44;;;;;;;18.00;10.77;;;7.00;99.90;;;;;;5021714;28;20076;-78
2024/02/01 11:34:12;;;;;;;17.87;10.07;;;7.00;99.90;;;;;;5013065;28;20389;-79
2024/02/01 11:36:39;;;;;;;15.90;10.47;;;7.00;99.90;;;;;;5022844;28;20037;-78
2024/02/01 11:39:09;;;;;;;17.43;10.23;;;7.00;99.90;;;;;;5029405;28;20029;-78
2024/02/01 11:41:35;;;;;;;15.03;10.37;;;6.90;99.90;;;;;;5032903;28;20017;-77
2024/02/01 11:44:02;;;;;;;15.73;9.83;;;6.90;99.90;;;;;;5028736;28;20045;-77
2024/02/01 11:46:28;;;;;;;17.47;10.77;;;6.90;99.90;;;;;;5030278;28;20036;-79
2024/02/01 11:48:55;;;;;;;16.60;10.77;;;6.90;99.90;;;;;;5030234;28;20025;-78
2024/02/01 11:51:20;;;;;;;19.43;12.03;;;6.80;99.90;;;;;;5023646;28;20128;-78
2024/02/01 11:53:51;;;;;;;20.33;12.43;;;6.80;99.90;;;;;;5019957;28;20109;-78
2024/02/01 11:56:17;;;;;;;20.80;13.83;;;6.80;99.90;;;;;;5021960;28;20026;-77
2024/02/01 11:58:43;;;;;;;19.67;12.90;;;6.70;99.90;;;;;;5031606;28;20374;-77
2024/02/01 12:01:09;;;;;;;16.03;11.77;;;6.80;99.90;;;;;;5020755;28;20079;-77
2024/02/01 12:03:37;;;;;;;19.67;11.67;;;6.80;99.90;;;;;;5020109;28;20520;-78
2024/02/01 12:06:04;;;;;;;16.40;10.37;;;6.80;99.90;;;;;;5013549;28;20034;-77
2024/02/01 12:08:31;;;;;;;13.87;9.30;;;6.90;99.90;;;;;;5026628;28;20040;-78
2024/02/01 12:10:59;;;;;;;14.83;9.20;;;7.00;99.90;;;;;;5021747;28;20029;-78
2024/02/01 12:13:24;;;;;;;12.10;8.73;;;7.00;99.90;;;;;;5031299;28;20022;-81
2024/02/01 12:15:53;;;;;;;15.30;8.50;;;7.00;99.90;;;;;;5029204;28;20439;-77
2024/02/01 12:18:19;;;;;;;13.67;8.33;;;7.00;99.90;;;;;;5024867;28;20501;-78
2024/02/01 12:20:47;;;;;;;13.00;8.20;;;7.00;99.90;;;;;;5026521;28;20108;-77
2024/02/01 12:23:14;;;;;;;13.37;9.47;;;7.00;99.90;;;;;;5024525;28;20021;-76
2024/02/01 12:25:45;;;;;;;11.50;8.20;;;7.10;99.90;;;;;;5031646;28;20033;-77
2024/02/01 12:28:11;;;;;;;12.83;8.17;;;7.10;99.90;;;;;;5028295;28;20025;-77
2024/02/01 12:30:41;;;;;;;11.50;8.37;;;7.00;99.90;;;;;;5028191;28;20055;-79
2024/02/01 12:33:12;;;;;;;12.27;8.20;;;7.00;99.90;;;;;;5023778;28;20096;-77
2024/02/01 12:35:38;;;;;;;15.17;8.87;;;6.90;99.90;;;;;;5019466;28;20056;-76
2024/02/01 12:38:04;;;;;;;11.93;8.40;;;6.90;99.90;;;;;;5029719;28;20083;-77
2024/02/01 12:40:30;;;;;;;13.87;8.83;;;7.00;99.90;;;;;;5028372;28;20025;-78
2024/02/01 12:43:01;;;;;;;16.33;8.33;;;7.00;99.90;;;;;;5034103;28;20033;-76
2024/02/01 12:45:26;;;;;;;11.57;7.73;;;7.00;99.90;;;;;;5032064;28;20047;-77
2024/02/01 12:47:53;;;;;;;13.77;8.40;;;7.10;99.90;;;;;;5025224;28;20022;-78
2024/02/01 12:50:20;;;;;;;12.13;8.10;;;7.00;99.90;;;;;;5031949;28;20052;-78
2024/02/01 12:52:46;;;;;;;12.67;7.80;;;7.00;99.90;;;;;;5035133;28;20021;-77
2024/02/01 12:55:12;;;;;;;14.17;8.40;;;7.00;99.90;;;;;;5031043;28;20037;-76
2024/02/01 12:57:39;;;;;;;14.83;9.37;;;7.10;99.90;;;;;;5026856;28;20135;-78
2024/02/01 13:00:06;;;;;;;11.00;7.83;;;7.10;99.90;;;;;;5025484;28;20068;-78
2024/02/01 13:02:34;;;;;;;12.23;7.67;;;7.00;99.90;;;;;;5032519;28;20488;-76
2024/02/01 13:05:07;;;;;;;12.60;8.40;;;7.00;99.90;;;;;;5031975;28;20104;-77
2024/02/01 13:07:36;;;;;;;12.00;7.90;;;7.10;99.90;;;;;;5028623;28;20040;-77
2024/02/01 13:10:13;;;;;;;14.03;8.17;;;7.10;99.90;;;;;;5030791;28;20036;-76
2024/02/01 13:12:54;;;;;;;11.53;9.00;;;7.20;99.90;;;;;;5030334;28;20031;-77
2024/02/01 13:15:23;;;;;;;12.90;8.50;;;7.20;99.90;;;;;;5021508;28;21187;-77
2024/02/01 13:17:50;;;;;;;12.07;8.33;;;7.10;99.90;;;;;;5030347;28;20029;-78
2024/02/01 13:20:19;;;;;;;12.47;8.87;;;7.10;99.90;;;;;;5031099;28;20041;-77
2024/02/01 13:22:49;;;;;;;15.53;8.53;;;7.10;99.90;;;;;;5026796;28;20265;-77
2024/02/01 13:25:19;;;;;;;10.87;7.37;;;7.10;99.90;;;;;;5025233;28;20056;-77
2024/02/01 13:27:48;;;;;;;10.90;7.90;;;7.20;99.90;;;;;;5031385;28;20045;-77
2024/02/01 13:30:16;;;;;;;10.57;6.93;;;7.20;99.90;;;;;;5030340;28;20025;-77
2024/02/01 13:32:46;;;;;;;10.43;7.73;;;7.20;99.90;;;;;;5016554;28;20037;-77
2024/02/01 13:35:12;;;;;;;10.70;7.40;;;7.10;99.90;;;;;;5019431;28;20112;-78
2024/02/01 13:37:38;;;;;;;11.07;7.30;;;7.10;99.90;;;;;;5020205;28;20032;-75
2024/02/01 13:40:06;;;;;;;15.53;8.00;;;7.20;99.90;;;;;;5017322;28;20087;-73
2024/02/01 13:42:34;;;;;;;9.30;6.63;;;7.10;99.90;;;;;;5017896;28;20113;-74
2024/02/01 13:45:05;;;;;;;12.07;7.77;;;7.10;99.90;;;;;;5020145;28;20030;-74
2024/02/01 13:47:31;;;;;;;11.00;7.73;;;7.20;99.90;;;;;;5018406;28;20396;-74
2024/02/01 13:49:56;;;;;;;12.63;6.80;;;7.20;99.90;;;;;;5016422;28;20036;-73
2024/02/01 13:52:22;;;;;;;7.90;6.47;;;7.20;99.90;;;;;;5018821;28;20120;-74